Humidity-temperature Sensor

Selected Measurement Type: Relative Humidity

 
Relative Humidity [%]     6 entries per hour
Showing data from 12/8/2022 (22:00:00 Z) to 12/7/2022 (00:01:00 Z)
Previous Next [ Day | 3-Days | 7-Days ]
First Last
Prev [ Day | 3-Days | 7-Days ] Next
First Last

Start Time:     :
End Time:     :     
Time (in GMT) :00 :50 :40 :30 :20 :10
Previous Next [ Day | 3-Days | 7-Days ]
First Last
Prev [ Day | 3-Days | 7-Days ] Next
First Last


123 => good data
MM => data is determined as missing
-- => data not received/configured
Back to Top Back to Top
12/8/2022 22:00 to 21:10 96.61 96.90 97.13 97.38 97.60 97.64
12/8/2022 21:00 to 20:10 97.83 97.89 98.14 98.44 98.55 98.59
12/8/2022 20:00 to 19:10 98.61 98.55 98.69 98.61 98.57 98.57
12/8/2022 19:00 to 18:10 98.51 98.07 97.79 96.92 96.06 95.75
12/8/2022 18:00 to 17:10 95.77 95.75 95.73 95.73 95.61 95.42
12/8/2022 17:00 to 16:10 95.16 94.95 94.44 93.92 93.20 92.40
12/8/2022 16:00 to 15:10 91.81 91.62 91.54 91.62 91.54 91.44
12/8/2022 15:00 to 14:10 91.42 91.27 90.61 90.51 90.20 89.05
12/8/2022 14:00 to 13:10 88.29 88.54 88.89 88.99 89.13 89.24
12/8/2022 13:00 to 12:10 89.20 89.55 89.48 89.61 89.18 88.91
12/8/2022 12:00 to 11:10 88.72 88.42 88.54 88.87 89.05 89.20
12/8/2022 11:00 to 10:10 89.36 89.30 89.28 89.55 89.44 89.59
12/8/2022 10:00 to 9:10 89.81 89.65 89.96 89.92 89.94 89.77
12/8/2022 09:00 to 8:10 90.22 90.47 90.43 90.47 90.39 90.53
12/8/2022 08:00 to 7:10 90.55 90.96 91.21 91.54 91.40 91.21
12/8/2022 07:00 to 6:10 91.17 91.21 91.42 91.50 91.54 91.83
12/8/2022 06:00 to 5:10 91.50 91.52 91.54 91.44 91.54 91.64
12/8/2022 05:00 to 4:10 91.27 90.98 91.05 90.86 91.15 91.29
12/8/2022 04:00 to 3:10 91.81 91.70 92.07 92.20 92.46 92.53
12/8/2022 03:00 to 2:10 92.69 92.63 92.65 92.98 93.49 93.78
12/8/2022 02:00 to 1:10 94.29 94.35 94.85 95.11 95.38 95.87
12/8/2022 01:00 to 0:10 95.61 96.06 96.04 96.16 96.33 96.33
12/8/2022 00:00 to 23:10 96.37 96.37 96.22 96.29 96.08 96.18
12/7/2022 23:00 to 22:10 95.51 95.18 94.13 92.63 90.37 89.38
12/7/2022 22:00 to 21:10 89.42 89.69 89.92 90.35 90.47 90.04
12/7/2022 21:00 to 20:10 90.29 91.00 91.91 92.50 92.98 93.59
12/7/2022 20:00 to 19:10 94.29 94.91 95.46 96.06 96.04 95.59
12/7/2022 19:00 to 18:10 94.87 94.29 93.86 93.59 93.51 92.61
12/7/2022 18:00 to 17:10 91.31 89.28 88.60 88.97 89.07 88.85
12/7/2022 17:00 to 16:10 88.85 89.13 89.26 89.22 89.30 89.53
12/7/2022 16:00 to 15:10 89.48 89.85 90.49 91.68 92.79 93.82
12/7/2022 15:00 to 14:10 94.74 94.93 94.97 94.70 94.74 93.96
12/7/2022 14:00 to 13:10 93.02 91.31 89.44 89.09 89.09 89.28
12/7/2022 13:00 to 12:10 89.38 89.40 89.44 89.50 89.50 89.36
12/7/2022 12:00 to 11:10 89.75 89.79 89.55 89.75 90.51 91.11
12/7/2022 11:00 to 10:10 91.37 91.66 91.87 92.18 92.14 92.44
12/7/2022 10:00 to 9:10 93.02 93.43 93.37 93.31 93.08 92.92
12/7/2022 09:00 to 8:10 93.06 93.08 93.70 93.80 93.92 93.57
12/7/2022 08:00 to 7:10 93.70 93.78 93.61 93.43 93.14 93.76
12/7/2022 07:00 to 6:10 93.98 94.17 93.84 93.47 92.92 92.57
12/7/2022 06:00 to 5:10 91.54 89.34 89.40 89.55 90.02 89.94
12/7/2022 05:00 to 4:10 90.08 90.33 90.57 90.90 91.29 91.33
12/7/2022 04:00 to 3:10 90.82 90.06 89.87 89.38 88.95 88.97
12/7/2022 03:00 to 2:10 89.46 90.08 90.53 90.45 90.29 89.63
12/7/2022 02:00 to 1:10 88.87 89.01 89.34 89.16 89.18 89.32
12/7/2022 01:00 to 0:10 88.87 88.58 88.64 89.20 89.36 89.40